createdAt,value
2022-10-23T00:00:04.348Z,4.70
2022-10-23T00:01:29.633Z,4.85
2022-10-23T00:02:32.923Z,5.65
2022-10-23T00:03:42.301Z,5.93
2022-10-23T00:04:45.080Z,5.43
2022-10-23T00:05:50.806Z,6.32
2022-10-23T00:06:53.975Z,5.93
2022-10-23T00:08:02.004Z,5.80
2022-10-23T00:09:08.193Z,5.78
2022-10-23T00:10:14.210Z,6.07
2022-10-23T00:11:19.544Z,5.72
2022-10-23T00:12:25.371Z,5.57
2022-10-23T00:13:28.401Z,6.63
2022-10-23T00:14:34.111Z,5.63
2022-10-23T00:15:38.184Z,6.35
2022-10-23T00:16:47.180Z,6.15
2022-10-23T00:17:50.419Z,6.82
2022-10-23T00:18:56.000Z,6.05
2022-10-23T00:19:59.451Z,5.15
2022-10-23T00:21:05.271Z,5.68
2022-10-23T00:22:09.114Z,5.30
2022-10-23T00:23:14.911Z,5.68
2022-10-23T00:24:20.937Z,6.07
2022-10-23T00:25:24.038Z,4.75
2022-10-23T00:26:29.468Z,4.95
2022-10-23T00:27:32.338Z,4.40
2022-10-23T00:28:40.787Z,5.07
2022-10-23T00:29:45.140Z,4.90
2022-10-23T00:30:51.063Z,5.45
2022-10-23T00:31:59.250Z,5.38
2022-10-23T00:33:02.128Z,4.57
2022-10-23T00:34:09.167Z,4.80
2022-10-23T00:35:12.284Z,4.18
2022-10-23T00:36:20.226Z,4.30
2022-10-23T00:37:23.235Z,4.10
2022-10-23T00:38:29.129Z,4.07
2022-10-23T00:39:31.974Z,4.15
2022-10-23T00:40:37.948Z,3.85
2022-10-23T00:41:41.068Z,4.97
2022-10-23T00:42:47.025Z,4.00
2022-10-23T00:44:01.368Z,4.68
2022-10-23T00:45:23.381Z,5.63
2022-10-23T00:47:34.202Z,5.45
2022-10-23T00:48:37.530Z,5.10
2022-10-23T00:49:44.104Z,5.72
2022-10-23T00:50:48.581Z,5.78
2022-10-23T00:51:57.068Z,5.95
2022-10-23T00:53:03.778Z,6.35
2022-10-23T00:54:23.637Z,7.07
2022-10-23T00:55:31.790Z,5.90
2022-10-23T00:56:38.891Z,6.30
2022-10-23T00:57:46.600Z,6.78
